• Join FlightAware (Why Join?)
  • Login
  • US Flag 
11:58PM EDT


 

Airport Tracker/Info


-or-


 

Live Flight TrackerFlight Track Log ✈ TGW274 ✈ 15-Jun-2013 ✈ YSSY / SYD - YCFS

Flight Track Log - Related Links

Times and Time Zones

All times are in EDT time to prevent confusion due to time zone crossing. See the TGW274 flight status page for this flight to view local times or setup timezone preferences in your user account.

Time Position Orientation Groundspeed Altitude Reporting Facility
EDT Latitude Longitude Course Direction KTS MPH feet Rate Location/Type
11:58PM -33.9380 151.1780 255° West 9 10  Level FlightAware
11:59PM -33.9410 151.1780 180° South 15 17 60 Level FlightAware
11:59PM -33.9430 151.1790 157° South 18 21 60 Level FlightAware
12:00AM -33.9450 151.1790 180° South 12 14 60 Level FlightAware
12:01AM -33.9500 151.1800 171° South 21 24 60 Level FlightAware
12:01AM -33.9510 151.1800 180° South 12 14 120 Level FlightAware
12:01AM -33.9510 151.1810 90° East 15 17 120 Level FlightAware
12:02AM -33.9510 151.1830 90° East 19 22 120 Level FlightAware
12:02AM -33.9500 151.1860 68° East 19 22 120 Level FlightAware
12:03AM -33.9500 151.1880 90° East 8 9 180 Level FlightAware
12:05AM -33.9690 151.1930 168° South 141 162 500 1,080 Climbing FlightAware
12:05AM -33.9840 151.2070 142° Southeast 154 177 1,800 2,220 Climbing FlightAware
12:06AM -33.9970 151.2360 118° Southeast 192 221 2,700 1,920 Climbing FlightAware
12:06AM -34.0200 151.2590 140° Southeast 235 270 3,700 1,800 Climbing FlightAware
12:07AM -34.0470 151.2830 144° Southeast 245 282 4,500 1,620 Climbing FlightAware
12:07AM -34.0560 151.2920 140° Southeast 250 288 4,800 2,100 Climbing FlightAware
12:07AM -34.0870 151.3230 140° Southeast 245 282 6,100 2,760 Climbing FlightAware
12:08AM -34.1090 151.3450 140° Southeast 256 295 7,600 3,480 Climbing FlightAware
12:08AM -34.1370 151.3710 142° Southeast 267 307 9,300 3,480 Climbing FlightAware
12:09AM -34.1560 151.4040 125° Southeast 294 338 10,800 2,160 Climbing FlightAware
12:09AM -34.1450 151.4760 80° East 373 429 11,700 1,980 Climbing FlightAware
12:10AM -34.1160 151.5010 36° Northeast 382 440 12,800 3,000 Climbing FlightAware
12:10AM -34.0490 151.5190 13° North 391 450 14,700 2,640 Climbing FlightAware
12:11AM -33.9810 151.5360 12° North 400 460 16,300 2,640 Climbing FlightAware
12:12AM -33.8880 151.5660 15° North 420 483 18,500 2,880 Climbing FlightAware
12:12AM -33.8150 151.5910 16° North 416 479 20,500 2,760 Climbing FlightAware
12:13AM -33.7490 151.6130 15° North 419 482 22,000 2,220 Climbing FlightAware
12:14AM -33.6640 151.6420 16° North 430 495 23,500 1,920 Climbing FlightAware
12:15AM -33.5750 151.6720 16° North 435 501 24,900 1,560 Climbing FlightAware
12:15AM -33.5120 151.6930 16° North 453 521 25,600 1,800 Climbing FlightAware
12:16AM -33.4200 151.7240 16° North 453 521 27,300 2,280 Climbing FlightAware
12:17AM -33.3250 151.7560 16° North 439 505 29,100 2,400 Climbing FlightAware
12:17AM -33.2490 151.7980 25° Northeast 436 502 30,700 1,380 Climbing FlightAware
12:18AM -33.1770 151.8410 27° Northeast 435 501 31,000 180 Climbing FlightAware
12:19AM -33.0970 151.8890 27° Northeast 432 497 31,000  Level FlightAware
12:19AM -33.0140 151.9380 26° Northeast 432 497 31,000 60 Level FlightAware
12:20AM -32.9200 151.9950 27° Northeast 446 513 31,100 60 Climbing FlightAware
12:21AM -32.8430 152.0410 27° Northeast 445 512 31,100 -120 Level FlightAware
12:22AM -32.7610 152.0900 27° Northeast 445 512 31,000 -60 Descending FlightAware
12:23AM -32.6280 152.1690 27° Northeast 435 501 31,000  Level FlightAware
12:24AM -32.5660 152.2060 27° Northeast 434 499 31,000  Level FlightAware
12:24AM -32.4810 152.2560 26° Northeast 437 503 31,000  Level FlightAware
12:25AM -32.4080 152.2990 26° Northeast 445 512 31,000  Level FlightAware
12:26AM -32.3230 152.3490 26° Northeast 447 514 31,000  Level FlightAware
12:26AM -32.2550 152.3890 26° Northeast 447 514 31,000  Level FlightAware
12:27AM -32.1760 152.4360 27° Northeast 448 516 31,000  Level FlightAware
12:28AM -32.1030 152.4780 26° Northeast 446 513 31,000 -480 Level FlightAware
12:28AM -32.0200 152.5270 27° Northeast 447 514 30,400 -1,140 Descending FlightAware
12:29AM -31.9410 152.5730 26° Northeast 446 513 29,400 -1,800 Descending FlightAware
12:30AM -31.8350 152.6350 26° Northeast 438 504 27,400 -1,920 Descending FlightAware
12:31AM -31.7730 152.6710 26° Northeast 434 499 26,300 -1,980 Descending FlightAware
12:32AM -31.6830 152.7230 26° Northeast 427 491 24,600 -2,100 Descending FlightAware
12:32AM -31.6150 152.7620 26° Northeast 421 484 23,300 -1,080 Descending FlightAware
12:33AM -31.5580 152.7950 26° Northeast 421 484 23,300  Level FlightAware
12:34AM -31.4850 152.8370 26° Northeast 421 484 23,300  Level FlightAware
12:34AM -31.4320 152.8670 26° Northeast 421 484 23,300  Level FlightAware
12:35AM -31.3360 152.9220 26° Northeast 421 484 23,300  Level FlightAware
12:36AM -31.2810 152.9530 26° Northeast 421 484 23,300  Level FlightAware
12:39AM -30.8422 153.0281 North  Level Estimated
12:40AM -30.6723 153.0569 North  Level Estimated
12:41AM -30.5024 153.0857 North  Level Estimated